createdAt,value
2019-06-08T00:03:02.742Z,55.18
2019-06-08T00:07:08.469Z,55.94
2019-06-08T00:11:15.049Z,55.96
2019-06-08T00:15:22.338Z,57.24
2019-06-08T00:19:28.163Z,57.41
2019-06-08T00:23:34.073Z,54.29
2019-06-08T00:27:39.809Z,54.35
2019-06-08T00:31:45.509Z,58.94
2019-06-08T00:35:51.295Z,59.99
2019-06-08T00:39:57.032Z,58.40
2019-06-08T00:44:03.888Z,59.75
2019-06-08T00:48:09.740Z,60.22
2019-06-08T00:52:15.463Z,59.19
2019-06-08T00:56:21.565Z,60.21
2019-06-08T01:00:27.462Z,58.97
2019-06-08T01:04:33.148Z,59.99
2019-06-08T01:08:38.903Z,61.71
2019-06-08T01:12:44.867Z,60.30
2019-06-08T01:16:50.594Z,59.61
2019-06-08T01:20:56.317Z,59.43
2019-06-08T01:25:02.031Z,60.08
2019-06-08T01:29:08.840Z,59.77
2019-06-08T01:33:14.627Z,59.92
2019-06-08T01:37:24.859Z,60.06
2019-06-08T01:41:31.764Z,59.73
2019-06-08T01:45:37.631Z,58.29
2019-06-08T01:49:43.470Z,58.67
2019-06-08T01:53:49.201Z,59.15
2019-06-08T01:57:54.902Z,60.51
2019-06-08T02:02:00.631Z,59.91
2019-06-08T02:06:06.493Z,58.81
2019-06-08T02:10:12.589Z,58.93
2019-06-08T02:14:18.305Z,59.05
2019-06-08T02:18:36.578Z,59.56
2019-06-08T02:22:31.438Z,59.57
2019-06-08T02:26:37.224Z,60.90
2019-06-08T02:30:42.947Z,59.53
2019-06-08T02:34:48.662Z,60.21
2019-06-08T02:38:54.482Z,61.18
2019-06-08T02:43:00.262Z,59.92
2019-06-08T02:47:06.243Z,59.69
2019-06-08T02:51:13.590Z,59.45
2019-06-08T02:55:19.369Z,59.72
2019-06-08T02:59:29.353Z,59.48
2019-06-08T03:03:38.538Z,58.88
2019-06-08T03:07:48.069Z,58.70
2019-06-08T03:11:56.638Z,58.54
2019-06-08T03:16:02.653Z,58.62
2019-06-08T03:20:09.046Z,58.91
2019-06-08T03:24:14.764Z,58.62
2019-06-08T03:28:20.466Z,58.90
2019-06-08T03:32:26.415Z,58.86
2019-06-08T03:36:34.950Z,58.75
2019-06-08T03:40:40.550Z,57.95
2019-06-08T03:44:47.085Z,57.46
2019-06-08T03:48:52.830Z,57.15
2019-06-08T03:52:58.674Z,57.17
2019-06-08T03:57:04.461Z,56.46
2019-06-08T04:01:10.324Z,55.89
2019-06-08T04:05:16.080Z,55.99
2019-06-08T04:09:21.814Z,55.71
2019-06-08T04:13:27.514Z,56.29
2019-06-08T04:17:33.237Z,55.98
2019-06-08T04:21:40.332Z,55.96
2019-06-08T04:29:46.286Z,55.67
2019-06-08T04:33:52.127Z,56.19
2019-06-08T04:37:57.878Z,55.79
2019-06-08T04:42:03.596Z,56.06
2019-06-08T04:46:09.425Z,56.05
2019-06-08T04:50:22.634Z,55.68
2019-06-08T04:54:22.774Z,55.46
2019-06-08T04:58:28.623Z,55.52
2019-06-08T05:02:35.879Z,54.97
2019-06-08T05:06:42.977Z,54.45
2019-06-08T05:10:49.693Z,53.37
2019-06-08T05:14:55.517Z,52.33
2019-06-08T05:19:01.312Z,52.55
2019-06-08T05:23:07.048Z,52.54
2019-06-08T05:27:13.003Z,50.64
2019-06-08T05:31:18.789Z,50.83
2019-06-08T05:35:24.621Z,49.82
2019-06-08T05:39:30.401Z,50.03
2019-06-08T05:43:36.148Z,49.07
2019-06-08T05:47:41.920Z,50.38
2019-06-08T05:51:48.077Z,50.49
2019-06-08T05:55:53.784Z,50.58
2019-06-08T05:59:59.747Z,50.33
2019-06-08T06:04:05.611Z,49.98
2019-06-08T06:08:18.899Z,49.44
2019-06-08T06:12:18.870Z,48.95
2019-06-08T06:16:24.588Z,47.44
2019-06-08T06:20:30.419Z,48.12
2019-06-08T06:24:36.120Z,48.78
2019-06-08T06:28:41.908Z,47.34
2019-06-08T06:32:47.848Z,47.67
2019-06-08T06:36:53.555Z,47.01
2019-06-08T06:40:59.304Z,45.37
2019-06-08T06:45:08.563Z,46.06
2019-06-08T06:49:14.460Z,45.14
2019-06-08T06:53:20.196Z,44.40
2019-06-08T06:57:25.903Z,43.65
2019-06-08T07:01:32.563Z,43.02
2019-06-08T07:05:38.278Z,43.29
2019-06-08T07:09:44.374Z,42.24
2019-06-08T07:13:50.881Z,41.54
2019-06-08T07:17:58.561Z,41.92
2019-06-08T07:22:04.446Z,41.07
2019-06-08T07:26:10.167Z,39.14
2019-06-08T07:30:16.167Z,38.23
2019-06-08T07:34:21.885Z,41.45
2019-06-08T07:38:27.607Z,36.72
2019-06-08T07:42:33.614Z,37.38
2019-06-08T07:46:39.433Z,37.93
2019-06-08T07:50:46.199Z,37.67
2019-06-08T07:54:52.912Z,35.47
2019-06-08T07:58:59.062Z,35.44
2019-06-08T08:03:04.855Z,35.13
2019-06-08T08:07:10.599Z,33.16
2019-06-08T08:11:16.382Z,32.15
2019-06-08T08:15:22.372Z,30.97
2019-06-08T08:19:28.095Z,28.83
2019-06-08T08:23:34.921Z,30.66
2019-06-08T08:27:40.761Z,28.54
2019-06-08T08:31:47.990Z,27.46
2019-06-08T08:35:55.501Z,28.13
2019-06-08T08:40:01.647Z,27.91
2019-06-08T08:44:07.948Z,27.40
2019-06-08T08:48:25.545Z,26.60
2019-06-08T08:52:33.638Z,25.74
2019-06-08T08:56:29.679Z,33.31
2019-06-08T09:00:38.214Z,32.15
2019-06-08T09:04:42.867Z,25.01
2019-06-08T09:08:48.630Z,31.24
2019-06-08T09:12:56.434Z,25.92
2019-06-08T09:17:03.445Z,26.01
2019-06-08T09:21:10.217Z,31.22
2019-06-08T09:25:18.217Z,24.08
2019-06-08T09:29:23.556Z,24.27
2019-06-08T09:33:29.310Z,29.47
2019-06-08T09:37:37.560Z,23.82
2019-06-08T09:41:44.380Z,30.27
2019-06-08T09:45:50.128Z,24.04
2019-06-08T09:49:58.801Z,27.08
2019-06-08T09:54:06.224Z,24.36
2019-06-08T09:58:12.031Z,21.23
2019-06-08T10:02:18.384Z,22.79
2019-06-08T10:06:24.378Z,22.62
2019-06-08T10:10:30.130Z,22.94
2019-06-08T10:14:37.991Z,22.84
2019-06-08T10:18:43.516Z,23.96
2019-06-08T10:22:50.495Z,22.53
2019-06-08T10:26:57.186Z,21.26
2019-06-08T10:31:03.719Z,20.97
2019-06-08T10:35:11.019Z,21.46
2019-06-08T10:39:16.851Z,24.84
2019-06-08T10:43:22.632Z,23.97
2019-06-08T10:47:29.755Z,25.04
2019-06-08T10:51:40.190Z,24.97
2019-06-08T10:55:44.217Z,22.26
2019-06-08T10:59:49.925Z,19.52
2019-06-08T11:03:58.080Z,19.97
2019-06-08T11:08:04.483Z,18.74
2019-06-08T11:12:14.977Z,19.16
2019-06-08T11:16:18.725Z,25.09
2019-06-08T11:20:24.511Z,21.45
2019-06-08T11:24:30.248Z,21.63
2019-06-08T11:28:38.154Z,19.38
2019-06-08T11:32:43.387Z,23.21
2019-06-08T11:36:51.502Z,19.12
2019-06-08T11:40:57.516Z,20.16
2019-06-08T11:45:09.430Z,21.84
2019-06-08T11:53:14.919Z,19.45
2019-06-08T11:57:23.576Z,20.99
2019-06-08T12:01:29.317Z,21.42
2019-06-08T12:05:35.065Z,18.31
2019-06-08T12:09:40.782Z,18.80
2019-06-08T12:13:47.391Z,18.48
2019-06-08T12:17:53.299Z,20.19
2019-06-08T12:21:59.011Z,21.93
2019-06-08T12:26:06.109Z,20.50
2019-06-08T12:30:21.421Z,23.05
2019-06-08T12:34:19.662Z,22.03
2019-06-08T12:38:25.377Z,17.23
2019-06-08T12:42:31.169Z,21.82
2019-06-08T12:46:40.925Z,17.61
2019-06-08T12:50:44.300Z,17.38
2019-06-08T12:54:59.978Z,21.25
2019-06-08T12:58:57.888Z,21.43
2019-06-08T13:03:03.873Z,23.39
2019-06-08T13:07:10.506Z,18.66
2019-06-08T13:15:39.192Z,22.34
2019-06-08T13:19:44.990Z,19.11
2019-06-08T13:23:50.684Z,18.90
2019-06-08T13:27:58.309Z,19.16
2019-06-08T13:32:04.293Z,22.88
2019-06-08T13:36:10.328Z,22.28
2019-06-08T13:40:20.145Z,18.66
2019-06-08T13:44:24.425Z,18.09
2019-06-08T13:48:30.263Z,23.53
2019-06-08T13:52:38.166Z,18.39
2019-06-08T13:56:43.560Z,19.00
2019-06-08T14:00:49.673Z,18.49
2019-06-08T14:04:55.483Z,24.56
2019-06-08T14:09:01.194Z,19.37
2019-06-08T14:13:09.526Z,20.12
2019-06-08T14:17:15.477Z,20.37
2019-06-08T14:21:25.743Z,19.59
2019-06-08T14:25:30.118Z,23.58
2019-06-08T14:29:36.281Z,26.37
2019-06-08T14:33:42.087Z,20.76
2019-06-08T14:37:48.241Z,20.55
2019-06-08T14:41:54.113Z,26.00
2019-06-08T14:45:59.902Z,23.07
2019-06-08T14:50:08.077Z,25.23
2019-06-08T14:54:13.822Z,25.78
2019-06-08T14:58:23.976Z,26.06
2019-06-08T15:02:28.612Z,26.27
2019-06-08T15:06:34.507Z,27.14
2019-06-08T15:10:40.443Z,27.07
2019-06-08T15:14:47.739Z,27.18
2019-06-08T15:18:53.637Z,26.99
2019-06-08T15:22:59.624Z,27.35
2019-06-08T15:27:07.738Z,26.57
2019-06-08T15:31:12.740Z,27.59
2019-06-08T15:35:18.515Z,27.38
2019-06-08T15:39:25.538Z,26.24
2019-06-08T15:43:36.635Z,28.43
2019-06-08T15:47:40.819Z,29.27
2019-06-08T15:51:48.106Z,29.41
2019-06-08T15:55:54.046Z,29.77
2019-06-08T15:59:59.775Z,29.04
2019-06-08T16:04:05.575Z,29.93
2019-06-08T16:08:11.326Z,30.03
2019-06-08T16:12:17.073Z,29.81
2019-06-08T16:16:22.983Z,30.18
2019-06-08T16:20:29.536Z,29.92
2019-06-08T16:24:36.290Z,30.46
2019-06-08T16:28:42.127Z,30.30
2019-06-08T16:32:47.814Z,30.44
2019-06-08T16:36:53.620Z,30.39
2019-06-08T16:40:59.324Z,30.58
2019-06-08T16:45:10.625Z,30.49
2019-06-08T16:49:16.376Z,30.85
2019-06-08T16:53:24.205Z,30.97
2019-06-08T16:57:30.958Z,31.07
2019-06-08T17:01:36.934Z,31.18
2019-06-08T17:05:42.848Z,31.67
2019-06-08T17:09:48.575Z,31.49
2019-06-08T17:13:54.326Z,31.49
2019-06-08T17:18:00.068Z,31.58
2019-06-08T17:22:05.846Z,31.36
2019-06-08T17:26:11.695Z,30.92
2019-06-08T17:30:17.809Z,31.20
2019-06-08T17:34:23.704Z,31.76
2019-06-08T17:38:29.438Z,32.01
2019-06-08T17:42:35.194Z,32.28
2019-06-08T17:46:43.130Z,32.41
2019-06-08T17:50:48.856Z,32.10
2019-06-08T17:54:54.582Z,32.37
2019-06-08T17:59:00.326Z,32.23
2019-06-08T18:03:08.331Z,32.35
2019-06-08T18:07:14.194Z,32.42
2019-06-08T18:11:19.887Z,32.46
2019-06-08T18:15:27.917Z,32.60
2019-06-08T18:19:34.217Z,32.52
2019-06-08T18:23:40.858Z,32.61
2019-06-08T18:28:05.684Z,32.63
2019-06-08T18:31:55.145Z,31.37
2019-06-08T18:36:00.900Z,33.00
2019-06-08T18:40:09.961Z,33.05
2019-06-08T18:44:17.412Z,32.99
2019-06-08T18:48:24.399Z,33.03
2019-06-08T18:52:30.088Z,32.78
2019-06-08T18:56:38.699Z,33.23
2019-06-08T19:00:44.964Z,33.68
2019-06-08T19:04:50.754Z,33.72
2019-06-08T19:08:58.062Z,33.57
2019-06-08T19:13:06.176Z,33.91
2019-06-08T19:17:12.030Z,34.07
2019-06-08T19:21:17.953Z,34.20
2019-06-08T19:25:23.705Z,34.44
2019-06-08T19:29:29.755Z,34.33
2019-06-08T19:33:35.456Z,34.88
2019-06-08T19:37:41.917Z,33.67
2019-06-08T19:41:50.446Z,34.64
2019-06-08T19:45:58.065Z,34.80
2019-06-08T19:50:03.917Z,34.92
2019-06-08T19:54:09.616Z,35.22
2019-06-08T19:58:17.910Z,35.08
2019-06-08T20:02:22.768Z,34.21
2019-06-08T20:06:28.481Z,35.65
2019-06-08T20:10:34.168Z,34.47
2019-06-08T20:14:39.878Z,33.93
2019-06-08T20:18:48.216Z,35.89
2019-06-08T20:27:10.232Z,37.94
2019-06-08T20:31:15.326Z,38.41
2019-06-08T20:35:21.039Z,39.05
2019-06-08T20:39:27.322Z,38.39
2019-06-08T20:43:33.091Z,39.18
2019-06-08T20:47:39.213Z,42.70
2019-06-08T20:51:44.952Z,40.20
2019-06-08T20:55:52.054Z,38.36
2019-06-08T20:59:58.395Z,38.85
2019-06-08T21:04:04.173Z,37.41
2019-06-08T21:08:09.883Z,35.77
2019-06-08T21:12:17.658Z,38.12
2019-06-08T21:16:23.015Z,39.96
2019-06-08T21:20:28.961Z,39.97
2019-06-08T21:24:37.013Z,39.44
2019-06-08T21:28:42.151Z,40.01
2019-06-08T21:32:52.660Z,40.74
2019-06-08T21:36:56.454Z,41.27
2019-06-08T21:41:03.125Z,41.56
2019-06-08T21:45:09.884Z,41.37
2019-06-08T21:49:15.675Z,44.20
2019-06-08T21:53:22.016Z,40.80
2019-06-08T21:57:27.833Z,40.56
2019-06-08T22:01:34.319Z,39.72
2019-06-08T22:05:40.056Z,39.43
2019-06-08T22:09:48.005Z,37.47
2019-06-08T22:13:54.691Z,37.61
2019-06-08T22:18:01.495Z,38.01
2019-06-08T22:22:08.339Z,40.01
2019-06-08T22:26:14.264Z,41.96
2019-06-08T22:30:35.418Z,40.47
2019-06-08T22:34:28.154Z,39.92
2019-06-08T22:38:33.817Z,40.08
2019-06-08T22:42:39.663Z,38.69
2019-06-08T22:46:47.730Z,37.00
2019-06-08T22:50:53.794Z,37.74
2019-06-08T22:55:05.228Z,39.44
2019-06-08T22:59:09.252Z,39.97
2019-06-08T23:03:18.519Z,41.58
2019-06-08T23:07:29.852Z,39.56
2019-06-08T23:11:31.045Z,39.03
2019-06-08T23:15:37.901Z,41.24
2019-06-08T23:19:43.621Z,39.89
2019-06-08T23:23:49.378Z,42.25
2019-06-08T23:27:56.258Z,39.57
2019-06-08T23:32:04.336Z,41.14
2019-06-08T23:36:40.532Z,41.71
2019-06-08T23:40:18.241Z,41.81
2019-06-08T23:44:24.542Z,42.00
2019-06-08T23:48:30.296Z,43.24
2019-06-08T23:52:38.237Z,41.64
2019-06-08T23:56:44.469Z,38.49
